Nearby METAR Reports

 

CYYY - Mont Joli Airpor, Quebec, Canada
Distance from station: NE 44km
Mise à jour: Sat, 26-May-2018 10:00pm EDT
Few Clouds
Few Clouds
 Wind from E
Vent: E 11 km/h
Température: 7°C
Facteur vent: 5°C
Point de rosée: 0°C
Humidité: 61%
Baromètre: 1019.6 hPa
Clouds: Few Clouds
Visibility: 48 km
Cloud details: Few Clouds 6706 m
2018/05/27 02:00 CYYY 270200Z 08006KT 30SM FEW220 07/M00 A3011 RMK CI1 SLP201
CWZS - Amqui, Quebec, Canada
Distance from station: E 94km
Mise à jour: Sat, 26-May-2018 7:00pm EDT
NOT Current

 Wind from NNO
Vent: NNO 9 km/h
Température: 19°C
Point de rosée: 7°C
Humidité: 46%
2018/05/26 23:00 CWZS 262300Z AUTO 34005KT 19/07 RMK AO1 SLP993 T01900067
 
CWQO - Ile Bicquette, Quebec, Canada
Distance from station: ONO 15km
Mise à jour: Sat, 26-May-2018 10:00pm EDT

 Wind from E
Vent: E 7 km/h
Température: 9°C
Facteur vent: 8°C
Point de rosée: 0°C
Humidité: 54%
2018/05/27 02:00 CWQO 270200Z AUTO 08004KT 09/M00 RMK AO1 T00851002
CWNH - Riviere Du Loup, Quebec, Canada
Distance from station: SO 90km
Mise à jour: Sat, 26-May-2018 10:00pm EDT

 Wind from E
Vent: E 4 km/h
Température: 9°C
Point de rosée: -1°C
Humidité: 50%
2018/05/27 02:00 CWNH 270200Z AUTO 09002KT 09/M01 RMK AO1 SLP196 T00921014 52028
 
CWAF - Ile Rouge(Maps), Quebec, Canada
Distance from station: OSO 70km
Mise à jour: Sat, 26-May-2018 10:00pm EDT

 Wind from NNE
Vent: NNE 19 km/h
Température: 8°C
Facteur vent: 4°C
Point de rosée: 2°C
Humidité: 66%
2018/05/27 02:00 CWAF 270200Z AUTO 02010KT 08/02 RMK AO1 T00770020
CYBC - Baie Comeau Airp, Quebec, Canada
Distance from station: NNE 90km
Mise à jour: Sat, 26-May-2018 10:00pm EDT
clair
clair
 Wind from ENE
Vent: ENE 4 km/h
Température: 4°C
Point de rosée: 0°C
Humidité: 75%
Baromètre: 1020 hPa
Clouds: clair
Visibility: 14 km
2018/05/27 02:00 CYBC 270200Z AUTO 06002KT 9SM CLR 04/00 A3012 RMK SLP202